^^
Datos históricos de la estación: Murcia-Puente Tocinos
Diario Informe para Junio 19, 2019 Unidades:  Ingés    Métrico   Ambas
Diario Semanal Mensual Anual
  Máxima: Mínima: Promedio:
Temperatura: 61.9 °F 46.2 °F 52.7 °F
Punto de rocio: 45.1 °F 33.6 °F 37.8 °F
Humedad: 77.6% 36.9% 58%
Velocidad viento: 7.4mph 0mph 3.6mph
Racha viento: 14mph - -
Viento- - SO
Presión: 30 in 29.9 in -
Precipitación: 0 in    
 
 
Tabla de datos para Junio 19, 2019
Hora Temperatura Punto de rocio Presión Viento Velocidad viento Racha viento Humedad Intensidad lluvia(por hora) Nubes
00:04 50.5 °F 36.9 °F 30 in OSO 4.5 mph 7 mph 59.4% 0 in
00:09 50.4 °F 37 °F 30 in OSO 4 mph 6.2 mph 60% 0 in
00:14 50.2 °F 36.9 °F 30 in OSO 4 mph 6 mph 60% 0 in
00:17 50.2 °F 36.9 °F 30 in OSO 4 mph 5 mph 60.2% 0 in
00:24 50.2 °F 36.9 °F 30 in OSO 3.1 mph 5.2 mph 60% 0 in
00:25 50.2 °F 36.9 °F 30 in OSO 3.3 mph 5 mph 60% 0 in
00:34 50.5 °F 36.7 °F 30 in Oeste 3.5 mph 8.5 mph 58.9% 0 in
00:39 50.9 °F 36.5 °F 30 in Oeste 3.6 mph 9.7 mph 57.6% 0 in
00:44 51.4 °F 36.3 °F 30 in Oeste 4.5 mph 10 mph 56.1% 0 in
00:49 51.8 °F 36 °F 30 in Oeste 5.2 mph 8.1 mph 54.5% 0 in
00:54 52.2 °F 35.8 °F 30 in ONO 4.5 mph 8.1 mph 53.7% 0 in
00:59 52.3 °F 35.6 °F 30 in ONO 4 mph 8.1 mph 52.5% 0 in
01:04 52.5 °F 35.4 °F 30 in ONO 4.4 mph 8 mph 52% 0 in
01:09 52.5 °F 35.4 °F 30 in ONO 4.7 mph 8.5 mph 52% 0 in
01:14 52.5 °F 35.4 °F 30 in ONO 4.7 mph 9 mph 52% 0 in
01:19 52.5 °F 35.4 °F 30 in NO 4.7 mph 5 mph 52% 0 in
01:24 52.3 °F 35.2 °F 30 in Oeste 3.4 mph 5 mph 52% 0 in
01:29 52.2 °F 35.4 °F 30 in SO 2.4 mph 6.9 mph 52.8% 0 in
01:34 52.2 °F 35.4 °F 30 in OSO 2.4 mph 7 mph 53% 0 in
01:39 52 °F 35.4 °F 30 in OSO 2.4 mph 7 mph 53% 0 in
01:44 51.8 °F 35.2 °F 30 in Oeste 3.1 mph 5.8 mph 53% 0 in
01:49 51.4 °F 35.4 °F 30 in Oeste 3.6 mph 6.9 mph 53.9% 0 in
01:54 51.3 °F 35.2 °F 30 in Oeste 3.8 mph 7.4 mph 54% 0 in
01:59 51.3 °F 35.2 °F 30 in Oeste 4 mph 7 mph 54% 0 in
02:04 51.3 °F 35.2 °F 30 in Oeste 4.2 mph 7 mph 54% 0 in
02:09 50.9 °F 35.4 °F 30 in Oeste 4.3 mph 6.9 mph 55% 0 in
02:14 50.5 °F 35.4 °F 30 in ONO 4.2 mph 7 mph 55.8% 0 in
02:19 50.4 °F 35.2 °F 30 in NO 4 mph 7.4 mph 56.1% 0 in
02:24 50 °F 35.2 °F 30 in NO 4.4 mph 9.2 mph 57% 0 in
02:29 49.6 °F 35.2 °F 30 in ONO 4.7 mph 9.2 mph 57.8% 0 in
02:34 49.3 °F 35.2 °F 30 in OSO 4.7 mph 8 mph 58.4% 0 in
02:39 49.1 °F 35.4 °F 30 in Sur 4.7 mph 8.5 mph 59.2% 0 in
02:44 48.7 °F 36 °F 30 in SSE 4.3 mph 9 mph 61.1% 0 in
02:49 48.6 °F 36 °F 30 in Sur 4 mph 7 mph 61.7% 0 in
02:54 48.7 °F 35.8 °F 30 in Sur 4.2 mph 9.2 mph 61.1% 0 in
02:59 48.9 °F 35.8 °F 30 in Sur 4.3 mph 9.2 mph 60.3% 0 in
03:04 49.3 °F 35.6 °F 30 in SSO 5.3 mph 9.7 mph 59.1% 0 in
03:09 50.2 °F 35.1 °F 30 in SO 5.9 mph 11.5 mph 55.9% 0 in
03:14 50.9 °F 35.1 °F 30 in Oeste 5.2 mph 12 mph 54.3% 0 in
03:19 51.3 °F 34.9 °F 30 in OSO 4.7 mph 6.9 mph 53.6% 0 in
03:24 51.4 °F 34.7 °F 30 in SSO 4.1 mph 7 mph 52.6% 0 in
03:29 51.6 °F 34.5 °F 30 in SSO 3.6 mph 6.9 mph 52% 0 in
03:34 51.6 °F 34.7 °F 30 in SSE 3.8 mph 7 mph 52.5% 0 in
03:39 51.4 °F 34.9 °F 30 in SSE 4 mph 6 mph 53.2% 0 in
03:44 51.1 °F 35.1 °F 30 in SE 2.9 mph 3.5 mph 54.1% 0 in
03:49 50.5 °F 35.1 °F 30 in ESE 2 mph 3 mph 55% 0 in
03:54 50.4 °F 35.1 °F 30 in SSE 1.7 mph 4.6 mph 55.9% 0 in
03:59 49.8 °F 34.7 °F 30 in SSE 1.4 mph 5 mph 56% 0 in
04:04 49.6 °F 35.1 °F 30 in ONO 1.7 mph 5.8 mph 56.8% 0 in
04:09 49.3 °F 34.9 °F 30 in ONO 1.8 mph 6 mph 57.7% 0 in
04:14 48.9 °F 35.1 °F 30 in OSO 2.4 mph 6.2 mph 58.6% 0 in
04:19 48.6 °F 35.1 °F 30 in SO 2.9 mph 6 mph 59.7% 0 in
04:24 48.4 °F 35.4 °F 30 in SO 3.3 mph 6 mph 60.7% 0 in
04:29 48.2 °F 35.2 °F 30 in SSO 3.6 mph 6 mph 61% 0 in
04:34 48.2 °F 35.4 °F 30 in Oeste 3.3 mph 6.9 mph 61% 0 in
04:39 48 °F 35.2 °F 30 in OSO 3.1 mph 7 mph 61% 0 in
04:44 47.8 °F 35.1 °F 30 in SO 4 mph 8.5 mph 61% 0 in
04:49 48.4 °F 34.9 °F 30 in SSO 4.7 mph 11.5 mph 59.7% 0 in
04:54 48.9 °F 34.7 °F 30 in SSO 5.7 mph 12.7 mph 58.1% 0 in
04:59 48.9 °F 34.7 °F 30 in SO 6.4 mph 13 mph 57.8% 0 in
05:04 49.1 °F 34.5 °F 30 in SO 6.8 mph 12 mph 57% 0 in
05:09 49.3 °F 34.7 °F 30 in SO 6.9 mph 11 mph 57% 0 in
05:14 49.5 °F 34.5 °F 30 in OSO 6.3 mph 10 mph 56.6% 0 in
05:19 49.5 °F 34.3 °F 30 in SO 5.9 mph 9 mph 56% 0 in
05:24 49.5 °F 34.3 °F 30 in SO 5.5 mph 10.7 mph 56% 0 in
05:29 49.6 °F 34.5 °F 30 in SO 5.2 mph 11.4 mph 55.8% 0 in
05:34 49.8 °F 34.3 °F 30 in OSO 5.8 mph 13.8 mph 55% 0 in
05:39 50 °F 34.5 °F 30 in OSO 6.4 mph 14 mph 55% 0 in
05:44 50 °F 34.3 °F 30 in OSO 6.2 mph 12 mph 55% 0 in
05:49 49.6 °F 34.3 °F 30 in OSO 5.9 mph 9.2 mph 55.5% 0 in
05:54 49.5 °F 34.3 °F 30 in OSO 5.5 mph 9 mph 56% 0 in
05:59 49.5 °F 34.2 °F 30 in SO 5.2 mph 13 mph 55.6% 0 in
06:04 49.6 °F 34.2 °F 30 in OSO 5.3 mph 13 mph 55% 0 in
06:09 49.6 °F 34.2 °F 30 in OSO 5.4 mph 9 mph 55% 0 in
06:14 49.8 °F 34 °F 30 in SO 5.4 mph 9.2 mph 54.1% 0 in
06:19 50.2 °F 34.2 °F 30 in OSO 5.4 mph 9.2 mph 54% 0 in
06:24 50.2 °F 34.2 °F 30 in OSO 5.7 mph 9 mph 54% 0 in
06:29 50 °F 34.2 °F 30 in OSO 5.9 mph 9 mph 54% 0 in
06:34 49.8 °F 34 °F 30 in SSO 5.9 mph 13.8 mph 54.3% 0 in
06:39 49.3 °F 34 °F 30 in SO 5.9 mph 14 mph 55.6% 0 in
06:44 48.7 °F 34.2 °F 30 in SO 6.8 mph 12 mph 56.7% 0 in
06:49 48.6 °F 34 °F 30 in OSO 7.4 mph 10.4 mph 57% 0 in
06:54 48.6 °F 34 °F 30 in OSO 7.4 mph 11.5 mph 57% 0 in
06:59 48.6 °F 34.2 °F 30 in OSO 7.4 mph 12 mph 57.3% 0 in
07:04 48.2 °F 34 °F 30 in OSO 7.4 mph 12.3 mph 58% 0 in
07:09 47.8 °F 34 °F 30 in OSO 7.4 mph 13 mph 58.4% 0 in
07:14 47.8 °F 34 °F 30 in OSO 7.4 mph 13 mph 58.5% 0 in
07:19 47.8 °F 34.2 °F 30 in Oeste 7.4 mph 13 mph 58.5% 0 in
07:24 47.8 °F 34.2 °F 30 in ONO 5.5 mph 8 mph 59% 0 in
07:29 47.7 °F 34 °F 30 in OSO 4.3 mph 6.2 mph 59.1% 0 in
07:34 47.3 °F 34.2 °F 30 in SE 3.1 mph 6.2 mph 60.4% 0 in
07:39 46.6 °F 34.3 °F 30 in SSE 2.4 mph 6.9 mph 62% 0 in
07:44 46.2 °F 34.3 °F 30 in SSO 3.3 mph 7 mph 62.8% 0 in
07:49 46.8 °F 34.2 °F 30 in SO 4 mph 8.5 mph 61.7% 0 in
07:54 47.1 °F 34 °F 30 in OSO 4.8 mph 10.4 mph 60% 0 in
07:59 47.5 °F 33.8 °F 30 in OSO 5.4 mph 10 mph 58.9% 0 in
08:04 47.7 °F 34 °F 30 in OSO 5.7 mph 9.2 mph 59% 0 in
08:09 47.3 °F 33.8 °F 30 in Oeste 5.9 mph 10.4 mph 59% 0 in
08:14 47.1 °F 33.6 °F 30 in Oeste 6.2 mph 10.4 mph 59.1% 0 in
08:19 46.9 °F 33.6 °F 30 in Oeste 6.4 mph 10.7 mph 59.6% 0 in
08:24 47.3 °F 33.6 °F 30 in Oeste 6.4 mph 11 mph 59% 0 in
08:29 47.5 °F 34 °F 30 in Oeste 6.4 mph 10 mph 59% 0 in
08:34 47.7 °F 34.2 °F 30 in Oeste 5.3 mph 7 mph 59% 0 in
08:39 48 °F 34.3 °F 30 in Sur 4.3 mph 5.2 mph 58.8% 0 in
08:44 48.2 °F 34.3 °F 30 in SSE 2.9 mph 7.4 mph 58.2% 0 in
08:49 47.7 °F 34.2 °F 30 in SSE 2 mph 8.1 mph 59% 0 in
08:54 47.7 °F 34 °F 30 in SSE 4 mph 8.1 mph 59% 0 in
08:59 47.8 °F 34.2 °F 30 in SSO 5.4 mph 8 mph 59% 0 in
09:04 48.2 °F 34.3 °F 30 in OSO 4.5 mph 6.2 mph 58.3% 0 in
09:09 48.6 °F 34.3 °F 30 in SO 4 mph 8.5 mph 58% 0 in
09:14 48.9 °F 34.7 °F 30 in SO 4.4 mph 9.2 mph 58% 0 in
09:19 49.1 °F 34.7 °F 30 in SSO 4.7 mph 9.7 mph 57.4% 0 in
09:24 49.3 °F 34.7 °F 30 in SO 5.4 mph 10 mph 57% 0 in
09:29 49.6 °F 34.5 °F 30 in OSO 5.9 mph 9.2 mph 56.1% 0 in
09:34 49.8 °F 34.3 °F 30 in OSO 5.6 mph 10.4 mph 55.1% 0 in
09:35 50 °F 34.5 °F 30 in OSO 5.5 mph 10.4 mph 55% 0 in
10:01 51.1 °F 34.2 °F 30 in SO 7.4 mph 13.8 mph 52% 0 in
15:24 60.6 °F 34.7 °F 30 in Oeste 6.2 mph 13.8 mph 37.6% 0 in
15:27 60.6 °F 34.9 °F 30 in NO 6.2 mph 14 mph 38.1% 0 in
15:34 60.8 °F 34.3 °F 30 in Oeste 5.4 mph 8.7 mph 37% 0 in
15:39 61 °F 34.7 °F 30 in OSO 5.4 mph 9.2 mph 37.3% 0 in
15:44 61 °F 34.5 °F 29.9 in SSO 5.3 mph 9 mph 37% 0 in
15:49 61.2 °F 34.7 °F 29.9 in NO 5.2 mph 6 mph 37% 0 in
15:54 61.3 °F 34.9 °F 29.9 in OSO 3.5 mph 6.9 mph 37% 0 in
15:59 61.5 °F 35.1 °F 29.9 in Oeste 2.4 mph 7 mph 37% 0 in
16:04 61.5 °F 35.1 °F 29.9 in OSO 2.8 mph 6 mph 37% 0 in
16:09 61.7 °F 35.1 °F 29.9 in ONO 3.1 mph 5 mph 36.9% 0 in
16:14 61.9 °F 35.2 °F 29.9 in ONO 2.7 mph 6.9 mph 37% 0 in
16:19 61.7 °F 35.1 °F 29.9 in Oeste 2.4 mph 8.1 mph 37% 0 in
16:24 61.5 °F 35.2 °F 29.9 in OSO 2.7 mph 8 mph 37.4% 0 in
16:29 61.3 °F 35.2 °F 29.9 in OSO 2.9 mph 5.9 mph 37.5% 0 in
16:34 61.3 °F 35.4 °F 29.9 in Oeste 2.6 mph 6 mph 37.8% 0 in
16:39 61.3 °F 35.4 °F 29.9 in NO 2.4 mph 4 mph 38% 0 in
16:44 61.3 °F 35.4 °F 29.9 in NO 1.8 mph 3.5 mph 37.9% 0 in
16:49 61.3 °F 35.1 °F 29.9 in NO 1.4 mph 3 mph 37.4% 0 in
16:54 61.3 °F 34.9 °F 29.9 in NO 1.4 mph 3 mph 37% 0 in
16:59 61.3 °F 34.9 °F 29.9 in NO 1.4 mph 3.5 mph 37.2% 0 in
17:04 61.2 °F 35.2 °F 29.9 in NO 1.4 mph 3.5 mph 38% 0 in
17:09 61 °F 35.2 °F 29.9 in NO 1.4 mph 2.3 mph 38.1% 0 in
17:14 60.8 °F 35.6 °F 29.9 in NO 0.6 mph 2 mph 39% 0 in
17:19 60.6 °F 35.2 °F 29.9 in Calm   1.8 mph 38.7% 0 in
17:24 60.4 °F 34.7 °F 29.9 in Calm   3.5 mph 38% 0 in
17:29 60.4 °F 35.1 °F 29.9 in Calm   3.6 mph 38.5% 0 in
17:34 60.3 °F 36.3 °F 29.9 in ESE 1 mph 6.2 mph 41% 0 in
17:39 59.7 °F 37.4 °F 29.9 in ESE 1.8 mph 6.4 mph 43.4% 0 in
17:44 59 °F 37.9 °F 29.9 in ESE 3.1 mph 7 mph 45.4% 0 in
17:49 58.5 °F 38.1 °F 29.9 in ESE 4 mph 7 mph 46.8% 0 in
17:54 57.7 °F 38.1 °F 29.9 in ESE 4 mph 7 mph 47.6% 0 in
17:59 57.6 °F 38.1 °F 29.9 in ESE 4 mph 7.6 mph 48.4% 0 in
18:04 57.2 °F 38.8 °F 29.9 in SE 4 mph 8.1 mph 50.3% 0 in
18:09 57.2 °F 39.4 °F 29.9 in ESE 4 mph 8 mph 51.2% 0 in
18:14 57.2 °F 39.7 °F 29.9 in SE 3.1 mph 6 mph 52% 0 in
18:19 57.2 °F 40.1 °F 29.9 in SSE 2.4 mph 5 mph 52.9% 0 in
18:24 57 °F 40.1 °F 30 in SSE 2.4 mph 5 mph 53.1% 0 in
18:29 57 °F 41 °F 30 in SSE 2.4 mph 5.4 mph 54.9% 0 in
18:34 57 °F 42.1 °F 30 in Sur 2.7 mph 8.1 mph 57.4% 0 in
18:39 57 °F 42.8 °F 30 in Sur 2.9 mph 8.1 mph 58.8% 0 in
18:44 57 °F 43.5 °F 30 in Sur 3.7 mph 9.2 mph 60.5% 0 in
18:49 57 °F 44.1 °F 30 in Sur 4.3 mph 9 mph 61.7% 0 in
18:54 57.2 °F 44.4 °F 30 in Sur 5 mph 8.1 mph 62.4% 0 in
18:59 57 °F 44.6 °F 30 in SSE 5.4 mph 8.1 mph 63% 0 in
19:04 57 °F 44.4 °F 30 in SSE 5.4 mph 8 mph 63% 0 in
19:09 57 °F 45 °F 30 in SSE 5.4 mph 7.4 mph 63.9% 0 in
19:14 57 °F 45 °F 30 in SE 4.7 mph 7 mph 64% 0 in
19:19 56.8 °F 45 °F 30 in ESE 4 mph 5.8 mph 64.2% 0 in
19:24 56.5 °F 45 °F 30 in SE 3.4 mph 6 mph 65% 0 in
19:29 56.3 °F 45 °F 30 in SE 2.9 mph 5 mph 66% 0 in
19:34 56.1 °F 45 °F 30 in SE 2 mph 2.3 mph 66% 0 in
19:39 56.1 °F 45 °F 30 in SE 1.4 mph 2 mph 66% 0 in
19:44 55.9 °F 45.1 °F 30 in SSE 0.6 mph 4.6 mph 67% 0 in
19:49 55.9 °F 45 °F 30 in Calm   7.4 mph 66.8% 0 in
19:54 55.4 °F 44.2 °F 30 in NO 1.9 mph 7.4 mph 66% 0 in
19:59 54.9 °F 43.7 °F 30 in NO 3.6 mph 7 mph 66% 0 in
20:04 54.3 °F 43.2 °F 30 in NO 3.9 mph 6 mph 66% 0 in
20:09 54.1 °F 43 °F 30 in NO 4 mph 6 mph 65.8% 0 in
20:14 54.1 °F 42.6 °F 30 in NO 3.4 mph 5 mph 65.1% 0 in
20:19 54.1 °F 42.6 °F 30 in NO 2.9 mph 4.6 mph 65% 0 in
20:24 54.1 °F 42.6 °F 30 in ONO 2.6 mph 5 mph 65% 0 in
20:29 54.1 °F 42.8 °F 30 in ONO 2.4 mph 5 mph 65% 0 in
20:34 54.1 °F 42.6 °F 30 in ONO 2.2 mph 3.5 mph 65% 0 in
20:39 54.1 °F 42.4 °F 30 in NNE 2 mph 3.6 mph 64.4% 0 in
20:44 54.1 °F 42.4 °F 30 in NNE 1.6 mph 4 mph 64.8% 0 in
20:49 54.1 °F 43.2 °F 30 in Este 1.4 mph 4.7 mph 66.4% 0 in
20:54 54.1 °F 43.3 °F 30 in Este 1.7 mph 5 mph 67% 0 in
20:59 54.1 °F 43.9 °F 30 in Este 2 mph 3 mph 68% 0 in
21:04 54.1 °F 43.9 °F 30 in ESE 0.7 mph 2 mph 68% 0 in
21:09 54.1 °F 43.7 °F 30 in Calm     68% 0 in
21:14 54 °F 43.5 °F 30 in Calm     68% 0 in
21:19 54 °F 43.9 °F 30 in Calm     68.8% 0 in
21:24 54 °F 43.7 °F 30 in Calm   2.9 mph 68.2% 0 in
21:29 54 °F 43.2 °F 30 in Calm   3 mph 67% 0 in
21:34 54 °F 43 °F 30 in Calm   2 mph 66.2% 0 in
21:39 54 °F 42.4 °F 30 in Calm     65% 0 in
21:44 54 °F 42.6 °F 30 in Calm   3.5 mph 65.4% 0 in
21:49 53.8 °F 42.6 °F 30 in Calm   3 mph 65.8% 0 in
21:54 53.8 °F 43 °F 30 in SSO 0.8 mph 4.6 mph 66.7% 0 in
21:59 53.8 °F 43.3 °F 30 in SSO 1.4 mph 5 mph 67.5% 0 in
22:04 54 °F 43.5 °F 30 in SSO 2.3 mph 5 mph 67.6% 0 in
22:09 54.1 °F 43.7 °F 30 in SSO 2.9 mph 5.8 mph 67.6% 0 in
22:14 54.1 °F 43.3 °F 30 in SSO 3 mph 6 mph 67% 0 in
22:19 54.3 °F 43.3 °F 30 in SSO 3.1 mph 5 mph 66.7% 0 in
22:24 54.3 °F 43.9 °F 30 in SSE 3.1 mph 5.9 mph 67.5% 0 in
22:29 54.1 °F 43.9 °F 30 in SE 3.1 mph 6 mph 68.5% 0 in
22:34 53.6 °F 44.1 °F 30 in SE 3.1 mph 5.8 mph 70.3% 0 in
22:39 53.1 °F 44.2 °F 30 in SE 3.1 mph 6 mph 72.1% 0 in
22:44 52.7 °F 44.2 °F 30 in SSE 2.7 mph 5 mph 72.7% 0 in
22:49 52.3 °F 43.5 °F 30 in NO 2.4 mph 5 mph 72.1% 0 in
22:54 52 °F 43.5 °F 30 in NO 1.8 mph 3.1 mph 73% 0 in
22:59 51.6 °F 43.2 °F 30 in NO 1.4 mph 3.5 mph 73% 0 in
23:04 51.4 °F 43.3 °F 30 in NO 1.4 mph 3.5 mph 73.8% 0 in
23:09 51.4 °F 43.3 °F 30 in NO 1.4 mph 3 mph 74% 0 in
23:14 51.3 °F 43.5 °F 30 in OSO 1.4 mph 4.7 mph 74.8% 0 in
23:19 51.3 °F 43.9 °F 30 in SO 1.4 mph 5 mph 75.9% 0 in
23:24 51.4 °F 43.9 °F 30 in SO 2 mph 5 mph 75.4% 0 in
23:29 51.4 °F 43.9 °F 30 in SO 2.4 mph 2.4 mph 75% 0 in
23:34 51.4 °F 44.1 °F 30 in SO 1.1 mph 2.3 mph 75.9% 0 in
23:39 51.3 °F 43.7 °F 30 in Calm   2.4 mph 75.3% 0 in
23:44 51.3 °F 44.1 °F 30 in Calm   3.5 mph 76% 0 in
23:49 51.1 °F 43.9 °F 30 in Calm   4.6 mph 76.1% 0 in
23:54 51.1 °F 44.1 °F 30 in SE 1.4 mph 5.8 mph 77% 0 in
23:59 50.7 °F 44.1 °F 30 in SSE 2.4 mph 6 mph 77.6% 0 in
Murcia-Puente Tocinos, Espa?a
Compliments of Weather Underground - 2.75 mb

La estación de MeteoMurcia.com, publica sus datos en los siguientes proyectos:

Weather Underground PWS IMURCIAP2 Meteoclimatic www.awekas.at

W3Counter
Web Analytics